Time;durP1;ratioP1;P1;durP2;ratioP2;P2;SDS_P1;SDS_P2;PMS_P1;PMS_P2;Temp;Humidity;BMP_temperature;BMP_pressure;BME280_temperature;BME280_humidity;BME280_pressure;Samples;Min_cycle;Max_cycle;Signal;HPM_P1;HPM_P2
2022/12/07 00:01:32;;;;;;;19.15;11.02;;;;;;;;;;5134284;27;20353;-81
2022/12/07 00:04:06;;;;;;;16.27;10.40;;;;;;;;;;5134708;27;20079;-81
2022/12/07 00:06:36;;;;;;;16.85;10.73;;;;;;;;;;5134765;27;20026;-80
2022/12/07 00:09:03;;;;;;;14.50;10.30;;;;;;;;;;5153256;27;20046;-79
2022/12/07 00:11:29;;;;;;;16.85;10.50;;;;;;;;;;5134733;27;20030;-81
2022/12/07 00:13:56;;;;;;;16.98;10.18;;;;;;;;;;5134903;27;20018;-81
2022/12/07 00:16:24;;;;;;;19.40;10.82;;;;;;;;;;5134981;27;20019;-80
2022/12/07 00:18:50;;;;;;;15.80;9.90;;;;;;;;;;5134982;27;20154;-81
2022/12/07 00:21:20;;;;;;;16.88;10.63;;;;;;;;;;5154031;27;20086;-81
2022/12/07 00:23:47;;;;;;;17.15;9.98;;;;;;;;;;5152266;27;20427;-81
2022/12/07 00:26:15;;;;;;;16.38;9.95;;;;;;;;;;5133512;27;20058;-81
2022/12/07 00:28:41;;;;;;;14.68;8.98;;;;;;;;;;5133559;27;20075;-81
2022/12/07 00:31:10;;;;;;;14.77;9.98;;;;;;;;;;5151912;27;20429;-81
2022/12/07 00:33:38;;;;;;;17.67;9.85;;;;;;;;;;5133461;27;20460;-81
2022/12/07 00:36:06;;;;;;;15.35;9.23;;;;;;;;;;5133301;27;20019;-81
2022/12/07 00:38:33;;;;;;;12.68;9.00;;;;;;;;;;5133243;27;20117;-81
2022/12/07 00:41:00;;;;;;;13.93;9.18;;;;;;;;;;5133506;27;20030;-80
2022/12/07 00:43:27;;;;;;;13.57;9.27;;;;;;;;;;5133034;27;20054;-80
2022/12/07 00:45:53;;;;;;;14.63;9.13;;;;;;;;;;5133670;27;20102;-81
2022/12/07 00:48:19;;;;;;;13.88;9.07;;;;;;;;;;5116104;27;20039;-81
2022/12/07 00:50:45;;;;;;;13.60;9.18;;;;;;;;;;5151830;27;20019;-81
2022/12/07 00:53:11;;;;;;;12.98;9.07;;;;;;;;;;5151800;27;20067;-81
2022/12/07 00:55:38;;;;;;;14.63;9.20;;;;;;;;;;5135151;27;20037;-80
2022/12/07 00:58:04;;;;;;;16.40;9.82;;;;;;;;;;5136333;27;20026;-80
2022/12/07 01:00:30;;;;;;;15.98;8.68;;;;;;;;;;5120511;27;20037;-81
2022/12/07 01:02:56;;;;;;;15.23;8.82;;;;;;;;;;5156255;27;20027;-80
2022/12/07 01:05:22;;;;;;;12.90;8.68;;;;;;;;;;5120963;27;20037;-81
2022/12/07 01:07:48;;;;;;;17.38;9.82;;;;;;;;;;5120991;27;20142;-80
2022/12/07 01:10:15;;;;;;;17.60;9.13;;;;;;;;;;5137995;27;20019;-81
2022/12/07 01:12:41;;;;;;;16.88;8.95;;;;;;;;;;5138050;27;20022;-81
2022/12/07 01:15:08;;;;;;;19.00;9.52;;;;;;;;;;5138032;27;20022;-80
2022/12/07 01:17:35;;;;;;;17.65;8.88;;;;;;;;;;5137803;27;20057;-81
2022/12/07 01:20:01;;;;;;;13.18;7.97;;;;;;;;;;5120852;27;20027;-80
2022/12/07 01:22:27;;;;;;;14.07;8.90;;;;;;;;;;5138001;27;20384;-81
2022/12/07 01:24:53;;;;;;;13.98;8.30;;;;;;;;;;5138091;27;20118;-80
2022/12/07 01:27:19;;;;;;;12.85;8.13;;;;;;;;;;5137659;27;20026;-81
2022/12/07 01:29:45;;;;;;;16.42;8.27;;;;;;;;;;5120694;27;20026;-81
2022/12/07 01:32:11;;;;;;;15.02;8.48;;;;;;;;;;5120101;27;20027;-81
2022/12/07 01:34:38;;;;;;;17.52;8.73;;;;;;;;;;5120042;27;20510;-81
2022/12/07 01:37:04;;;;;;;13.82;7.68;;;;;;;;;;5120166;27;20426;-81
2022/12/07 01:39:30;;;;;;;14.75;8.40;;;;;;;;;;5120702;27;20049;-81
2022/12/07 01:41:56;;;;;;;14.52;7.50;;;;;;;;;;5137217;27;20052;-81
2022/12/07 01:44:31;;;;;;;12.32;7.63;;;;;;;;;;5137289;27;20023;-81
2022/12/07 01:46:58;;;;;;;13.32;7.90;;;;;;;;;;5137087;27;20403;-81
2022/12/07 01:49:39;;;;;;;15.45;7.95;;;;;;;;;;5137051;27;20464;-81
2022/12/07 01:52:08;;;;;;;13.02;7.45;;;;;;;;;;5155817;27;20019;-81
2022/12/07 01:54:35;;;;;;;14.50;7.25;;;;;;;;;;5137167;27;20049;-81
2022/12/07 01:57:01;;;;;;;12.23;8.13;;;;;;;;;;5136895;27;20022;-81
2022/12/07 01:59:28;;;;;;;12.82;7.65;;;;;;;;;;5119986;27;20031;-81
2022/12/07 02:01:55;;;;;;;16.20;7.22;;;;;;;;;;5136785;27;20073;-81
2022/12/07 02:04:22;;;;;;;13.98;7.68;;;;;;;;;;5136848;27;20114;-81
2022/12/07 02:06:49;;;;;;;12.65;7.72;;;;;;;;;;5155373;27;20023;-81
2022/12/07 02:09:15;;;;;;;11.90;7.20;;;;;;;;;;5136627;27;20452;-81
2022/12/07 02:11:41;;;;;;;13.00;7.50;;;;;;;;;;5119787;27;20113;-81
2022/12/07 02:14:07;;;;;;;13.05;7.55;;;;;;;;;;5136804;27;20015;-81
2022/12/07 02:16:44;;;;;;;14.23;8.07;;;;;;;;;;5136633;27;20021;-81
2022/12/07 02:19:25;;;;;;;12.57;7.47;;;;;;;;;;5155118;27;20413;-81
2022/12/07 02:21:53;;;;;;;11.30;7.75;;;;;;;;;;5136476;27;20068;-80
2022/12/07 02:24:25;;;;;;;13.73;6.72;;;;;;;;;;5136340;27;20038;-81
2022/12/07 02:27:10;;;;;;;10.55;6.78;;;;;;;;;;5155160;27;20468;-81
2022/12/07 02:29:59;;;;;;;11.70;6.70;;;;;;;;;;5136111;27;20038;-80
2022/12/07 02:32:28;;;;;;;11.70;6.82;;;;;;;;;;5154770;27;20094;-81
2022/12/07 02:34:57;;;;;;;12.70;7.05;;;;;;;;;;5154870;27;20022;-81
2022/12/07 02:37:35;;;;;;;15.43;7.85;;;;;;;;;;5136081;27;20072;-81
2022/12/07 02:40:13;;;;;;;13.75;8.05;;;;;;;;;;5155023;27;20061;-81
2022/12/07 02:42:42;;;;;;;12.05;7.47;;;;;;;;;;5136003;27;20383;-81
2022/12/07 02:45:09;;;;;;;12.18;7.30;;;;;;;;;;5136228;27;20436;-80
2022/12/07 02:47:36;;;;;;;14.15;7.18;;;;;;;;;;5135781;27;20077;-81
2022/12/07 02:50:03;;;;;;;12.48;7.43;;;;;;;;;;5154160;27;20035;-81
2022/12/07 02:52:30;;;;;;;19.88;7.63;;;;;;;;;;5154554;27;20031;-81
2022/12/07 02:54:56;;;;;;;12.40;7.13;;;;;;;;;;5118787;27;20378;-81
2022/12/07 02:57:22;;;;;;;14.85;8.10;;;;;;;;;;5154395;27;20530;-80
2022/12/07 03:00:06;;;;;;;15.70;8.27;;;;;;;;;;5135783;27;20026;-81
2022/12/07 03:02:39;;;;;;;13.82;7.60;;;;;;;;;;5135298;27;20105;-80
2022/12/07 03:05:08;;;;;;;14.55;8.15;;;;;;;;;;5134544;27;20106;-81
2022/12/07 03:07:40;;;;;;;15.75;8.70;;;;;;;;;;5134366;27;20023;-81
2022/12/07 03:10:13;;;;;;;12.65;7.47;;;;;;;;;;5134932;27;20110;-81
2022/12/07 03:12:49;;;;;;;17.13;9.27;;;;;;;;;;5135337;27;20057;-80
2022/12/07 03:15:19;;;;;;;16.60;8.98;;;;;;;;;;5135283;27;20018;-81
2022/12/07 03:17:46;;;;;;;16.20;9.38;;;;;;;;;;5134684;27;20030;-81
2022/12/07 03:20:13;;;;;;;15.27;8.25;;;;;;;;;;5135450;27;20033;-81
2022/12/07 03:22:40;;;;;;;12.40;7.93;;;;;;;;;;5154210;27;20019;-81
2022/12/07 03:25:09;;;;;;;16.23;8.88;;;;;;;;;;5153987;27;20047;-81
2022/12/07 03:27:39;;;;;;;14.63;8.30;;;;;;;;;;5154071;27;20025;-81
2022/12/07 03:30:15;;;;;;;15.43;8.20;;;;;;;;;;5154097;27;20019;-81
2022/12/07 03:32:47;;;;;;;16.40;9.38;;;;;;;;;;5135097;27;20031;-81
2022/12/07 03:35:23;;;;;;;15.10;8.43;;;;;;;;;;5134556;27;20023;-81
2022/12/07 03:37:49;;;;;;;14.98;8.27;;;;;;;;;;5134749;27;20094;-81
2022/12/07 03:40:15;;;;;;;19.50;8.38;;;;;;;;;;5135222;27;20022;-81
2022/12/07 03:42:41;;;;;;;15.68;9.18;;;;;;;;;;5153920;27;20031;-81
2022/12/07 03:45:07;;;;;;;20.83;9.27;;;;;;;;;;5118390;27;20125;-81
2022/12/07 03:47:36;;;;;;;17.55;9.27;;;;;;;;;;5118288;27;20027;-81
2022/12/07 03:50:05;;;;;;;16.40;8.77;;;;;;;;;;5153667;27;20035;-81
2022/12/07 03:52:42;;;;;;;15.30;9.27;;;;;;;;;;5134986;27;20037;-81
2022/12/07 03:55:15;;;;;;;22.13;10.15;;;;;;;;;;5135089;27;20380;-81
2022/12/07 03:57:42;;;;;;;15.75;8.85;;;;;;;;;;5134814;27;20023;-81
2022/12/07 04:00:09;;;;;;;14.13;8.68;;;;;;;;;;5134997;27;20031;-81
2022/12/07 04:02:36;;;;;;;18.05;9.25;;;;;;;;;;5153359;27;20027;-81
2022/12/07 04:05:02;;;;;;;17.33;7.85;;;;;;;;;;5134940;27;20026;-81
2022/12/07 04:07:28;;;;;;;16.23;7.85;;;;;;;;;;5134889;27;20484;-81
2022/12/07 04:09:54;;;;;;;14.25;7.95;;;;;;;;;;5117974;27;20027;-81
2022/12/07 04:12:21;;;;;;;17.35;8.60;;;;;;;;;;5118019;27;20022;-81
2022/12/07 04:14:47;;;;;;;16.48;8.05;;;;;;;;;;5135288;27;20026;-81
2022/12/07 04:17:13;;;;;;;12.23;8.10;;;;;;;;;;5153498;27;20030;-81
2022/12/07 04:19:39;;;;;;;12.80;8.38;;;;;;;;;;5117784;27;20042;-81
2022/12/07 04:22:05;;;;;;;16.33;7.35;;;;;;;;;;5134899;27;20026;-81
2022/12/07 04:24:32;;;;;;;15.88;8.73;;;;;;;;;;5117792;27;20050;-81
2022/12/07 04:26:58;;;;;;;16.08;8.10;;;;;;;;;;5153332;27;20422;-81
2022/12/07 04:29:24;;;;;;;15.70;8.07;;;;;;;;;;5134944;27;20035;-81
2022/12/07 04:31:50;;;;;;;12.50;7.53;;;;;;;;;;5121708;27;20121;-81
2022/12/07 04:34:17;;;;;;;15.68;8.43;;;;;;;;;;5138823;27;20456;-81
2022/12/07 04:36:44;;;;;;;22.80;9.55;;;;;;;;;;5157429;27;20151;-80
2022/12/07 04:39:17;;;;;;;18.23;9.45;;;;;;;;;;5138821;27;20092;-81
2022/12/07 04:41:43;;;;;;;21.08;9.57;;;;;;;;;;5138824;27;20019;-80
2022/12/07 04:44:09;;;;;;;20.05;9.07;;;;;;;;;;5121807;27;20031;-81
2022/12/07 04:46:35;;;;;;;21.67;9.43;;;;;;;;;;5138789;27;20117;-81
2022/12/07 04:49:01;;;;;;;18.10;8.40;;;;;;;;;;5138419;27;20052;-81
2022/12/07 04:51:29;;;;;;;15.75;7.85;;;;;;;;;;5138549;27;20250;-81
2022/12/07 04:53:55;;;;;;;14.43;8.30;;;;;;;;;;5138573;27;20019;-81
2022/12/07 04:56:22;;;;;;;17.75;8.55;;;;;;;;;;5156893;27;20468;-81
2022/12/07 04:58:48;;;;;;;14.10;7.28;;;;;;;;;;5156896;27;20023;-81
2022/12/07 05:01:15;;;;;;;13.27;7.18;;;;;;;;;;5138296;27;20023;-81
2022/12/07 05:03:41;;;;;;;14.35;8.45;;;;;;;;;;5156962;27;20357;-80
2022/12/07 05:06:08;;;;;;;15.00;8.00;;;;;;;;;;5138217;27;20022;-81
2022/12/07 05:08:35;;;;;;;18.60;8.52;;;;;;;;;;5138227;27;20027;-81
2022/12/07 05:11:01;;;;;;;17.23;8.52;;;;;;;;;;5121089;27;20029;-81
2022/12/07 05:13:27;;;;;;;12.60;7.50;;;;;;;;;;5138032;27;20436;-81
2022/12/07 05:15:54;;;;;;;12.13;8.32;;;;;;;;;;5138143;27;20046;-80
2022/12/07 05:18:20;;;;;;;14.25;7.82;;;;;;;;;;5137827;27;20046;-81
2022/12/07 05:20:46;;;;;;;14.68;8.82;;;;;;;;;;5120747;27;20486;-81
2022/12/07 05:23:12;;;;;;;17.45;8.07;;;;;;;;;;5137681;27;20118;-81
2022/12/07 05:25:38;;;;;;;15.73;7.70;;;;;;;;;;5120790;27;20038;-81
2022/12/07 05:28:05;;;;;;;16.17;7.32;;;;;;;;;;5137044;27;20350;-81
2022/12/07 05:30:31;;;;;;;12.73;7.47;;;;;;;;;;5137027;27;20026;-81
2022/12/07 05:32:57;;;;;;;17.13;7.68;;;;;;;;;;5119550;27;20019;-81
2022/12/07 05:35:23;;;;;;;14.02;8.15;;;;;;;;;;5119588;27;20054;-81
2022/12/07 05:37:49;;;;;;;14.40;7.80;;;;;;;;;;5137009;27;20030;-81
2022/12/07 05:40:15;;;;;;;15.98;8.43;;;;;;;;;;5120150;27;20038;-81
2022/12/07 05:42:42;;;;;;;15.65;8.27;;;;;;;;;;5136791;27;20030;-81
2022/12/07 05:45:09;;;;;;;19.17;8.85;;;;;;;;;;5119859;27;20122;-81
2022/12/07 05:47:36;;;;;;;15.23;8.15;;;;;;;;;;5136692;27;20035;-81
2022/12/07 05:50:02;;;;;;;10.48;7.32;;;;;;;;;;5136719;27;20034;-81
2022/12/07 05:52:28;;;;;;;16.27;7.70;;;;;;;;;;5136629;27;20042;-81
2022/12/07 05:54:54;;;;;;;14.88;8.20;;;;;;;;;;5119912;27;20050;-81
2022/12/07 05:57:20;;;;;;;13.98;7.72;;;;;;;;;;5136716;27;20468;-81
2022/12/07 05:59:46;;;;;;;17.23;7.78;;;;;;;;;;5119866;27;20027;-81
2022/12/07 06:02:13;;;;;;;13.52;7.40;;;;;;;;;;5155311;27;20054;-81
2022/12/07 06:04:44;;;;;;;16.58;7.20;;;;;;;;;;5155434;27;20322;-81
2022/12/07 06:07:10;;;;;;;15.00;7.95;;;;;;;;;;5136602;27;20022;-81
2022/12/07 06:09:36;;;;;;;14.13;7.70;;;;;;;;;;5136609;27;20314;-81
2022/12/07 06:14:48;;;;;;;11.82;7.60;;;;;;;;;;5155378;27;20041;-81
2022/12/07 06:17:14;;;;;;;18.10;8.25;;;;;;;;;;5136437;27;20023;-81
2022/12/07 06:19:41;;;;;;;12.05;7.45;;;;;;;;;;5136462;27;20475;-81
2022/12/07 06:22:08;;;;;;;15.82;7.80;;;;;;;;;;5119455;27;20050;-81
2022/12/07 06:24:34;;;;;;;15.48;7.90;;;;;;;;;;5136593;27;20490;-81
2022/12/07 06:27:00;;;;;;;15.02;7.95;;;;;;;;;;5119800;27;20121;-81
2022/12/07 06:29:27;;;;;;;15.90;7.22;;;;;;;;;;5119299;27;20027;-81
2022/12/07 06:31:53;;;;;;;11.73;7.75;;;;;;;;;;5119492;27;20019;-81
2022/12/07 06:34:20;;;;;;;14.13;7.78;;;;;;;;;;5136317;27;20082;-81
2022/12/07 06:36:50;;;;;;;14.10;7.15;;;;;;;;;;5136181;27;20105;-81
2022/12/07 06:39:16;;;;;;;16.35;8.10;;;;;;;;;;5137256;27;20106;-81
2022/12/07 06:41:42;;;;;;;18.38;9.15;;;;;;;;;;5154780;27;20033;-81
2022/12/07 06:44:09;;;;;;;17.55;8.73;;;;;;;;;;5119338;27;20027;-81
2022/12/07 06:46:37;;;;;;;15.15;7.88;;;;;;;;;;5154737;27;20023;-81
2022/12/07 06:49:04;;;;;;;13.98;8.02;;;;;;;;;;5136558;27;20031;-81
2022/12/07 06:51:30;;;;;;;12.90;7.30;;;;;;;;;;5135803;27;20027;-81
2022/12/07 06:53:57;;;;;;;14.32;7.25;;;;;;;;;;5135305;27;20071;-81
2022/12/07 06:56:23;;;;;;;15.75;7.20;;;;;;;;;;5135973;27;20111;-81
2022/12/07 06:58:49;;;;;;;12.48;6.80;;;;;;;;;;5118580;27;20027;-81
2022/12/07 07:01:16;;;;;;;10.93;6.78;;;;;;;;;;5154149;27;20076;-81
2022/12/07 07:03:42;;;;;;;13.68;7.00;;;;;;;;;;5135085;27;20122;-81
2022/12/07 07:06:09;;;;;;;12.30;6.70;;;;;;;;;;5134932;27;20031;-81
2022/12/07 07:08:38;;;;;;;10.48;6.55;;;;;;;;;;5153496;27;20083;-81
2022/12/07 07:11:05;;;;;;;17.77;7.30;;;;;;;;;;5135235;27;20064;-80
2022/12/07 07:13:31;;;;;;;17.30;7.00;;;;;;;;;;5134963;27;20022;-80
2022/12/07 07:15:57;;;;;;;14.57;6.65;;;;;;;;;;5134722;27;20031;-81
2022/12/07 07:18:23;;;;;;;11.73;6.40;;;;;;;;;;5134923;27;20145;-81
2022/12/07 07:20:50;;;;;;;13.80;5.82;;;;;;;;;;5117512;27;20337;-81
2022/12/07 07:23:16;;;;;;;12.50;5.85;;;;;;;;;;5134720;27;20022;-81
2022/12/07 07:25:42;;;;;;;10.60;5.47;;;;;;;;;;5117002;27;20027;-81
2022/12/07 07:28:09;;;;;;;14.40;6.63;;;;;;;;;;5117258;27;20037;-81
2022/12/07 07:30:35;;;;;;;13.05;6.00;;;;;;;;;;5133840;27;20053;-81
2022/12/07 07:33:01;;;;;;;14.32;7.15;;;;;;;;;;5117039;27;20053;-82
2022/12/07 07:35:29;;;;;;;17.55;6.57;;;;;;;;;;5135016;27;20015;-81
2022/12/07 07:37:55;;;;;;;14.13;6.40;;;;;;;;;;5134773;27;20249;-81
2022/12/07 07:40:21;;;;;;;12.25;6.10;;;;;;;;;;5134370;27;20491;-81
2022/12/07 07:42:48;;;;;;;13.75;6.00;;;;;;;;;;5113342;28;20062;-81
2022/12/07 07:45:14;;;;;;;16.75;6.60;;;;;;;;;;5133077;27;20106;-80
2022/12/07 07:47:40;;;;;;;14.25;6.15;;;;;;;;;;5113272;28;20028;-81
2022/12/07 07:50:07;;;;;;;10.25;5.28;;;;;;;;;;5113276;28;20134;-81
2022/12/07 07:52:33;;;;;;;15.10;5.78;;;;;;;;;;5113011;28;20030;-81
2022/12/07 07:54:59;;;;;;;18.10;5.50;;;;;;;;;;5096331;28;20403;-81
2022/12/07 07:57:25;;;;;;;16.73;5.47;;;;;;;;;;5095934;28;20393;-81
2022/12/07 07:59:51;;;;;;;14.80;6.00;;;;;;;;;;5096280;27;20030;-81
2022/12/07 08:02:18;;;;;;;11.20;5.38;;;;;;;;;;5116538;27;20053;-81
2022/12/07 08:04:45;;;;;;;13.35;5.80;;;;;;;;;;5136149;27;20076;-81
2022/12/07 08:07:11;;;;;;;12.02;6.32;;;;;;;;;;5156567;27;20015;-81
2022/12/07 08:09:37;;;;;;;17.63;7.40;;;;;;;;;;5105991;27;20042;-81
2022/12/07 08:12:03;;;;;;;20.77;8.25;;;;;;;;;;5134627;27;20023;-80
2022/12/07 08:14:29;;;;;;;18.67;7.78;;;;;;;;;;5138131;27;20031;-81
2022/12/07 08:16:56;;;;;;;23.80;6.80;;;;;;;;;;5138632;27;20472;-81
2022/12/07 08:19:22;;;;;;;12.93;5.82;;;;;;;;;;5138963;27;20404;-81
2022/12/07 08:21:48;;;;;;;23.85;7.20;;;;;;;;;;5138808;27;20031;-81
2022/12/07 08:24:14;;;;;;;14.73;6.28;;;;;;;;;;5138853;27;20023;-81
2022/12/07 08:26:40;;;;;;;20.88;7.05;;;;;;;;;;5139074;27;20038;-81
2022/12/07 08:29:06;;;;;;;17.40;7.78;;;;;;;;;;5138877;27;20019;-81
2022/12/07 08:31:32;;;;;;;16.98;6.80;;;;;;;;;;5122009;27;20080;-81
2022/12/07 08:33:59;;;;;;;16.25;6.78;;;;;;;;;;5138765;27;20164;-81
2022/12/07 08:36:25;;;;;;;13.82;6.28;;;;;;;;;;5138520;27;20110;-81
2022/12/07 08:38:51;;;;;;;17.98;6.43;;;;;;;;;;5121691;27;20033;-81
2022/12/07 08:41:17;;;;;;;16.40;6.80;;;;;;;;;;5157257;27;20038;-81
2022/12/07 08:43:43;;;;;;;17.30;6.82;;;;;;;;;;5121730;27;20451;-81
2022/12/07 08:46:12;;;;;;;22.17;6.85;;;;;;;;;;5138919;27;20098;-81
2022/12/07 08:48:45;;;;;;;14.38;6.15;;;;;;;;;;5157880;27;20061;-81
2022/12/07 08:51:11;;;;;;;30.20;8.40;;;;;;;;;;5138519;27;20034;-81
2022/12/07 08:53:39;;;;;;;18.13;7.63;;;;;;;;;;5121388;27;20019;-81
2022/12/07 08:56:05;;;;;;;22.63;9.52;;;;;;;;;;5138652;27;20106;-81
2022/12/07 08:58:32;;;;;;;24.08;10.30;;;;;;;;;;5117808;27;20126;-81
2022/12/07 09:00:58;;;;;;;21.67;8.90;;;;;;;;;;5129838;27;20031;-81
2022/12/07 09:03:24;;;;;;;22.88;8.10;;;;;;;;;;5121486;27;20030;-81
2022/12/07 09:05:50;;;;;;;19.83;8.32;;;;;;;;;;5121223;27;20076;-81
2022/12/07 09:08:16;;;;;;;21.88;7.15;;;;;;;;;;5120730;27;20507;-81
2022/12/07 09:10:42;;;;;;;25.33;8.68;;;;;;;;;;5111597;27;20020;-81
2022/12/07 09:13:09;;;;;;;18.50;7.45;;;;;;;;;;5100631;27;20052;-81
2022/12/07 09:15:35;;;;;;;18.13;7.63;;;;;;;;;;5099807;27;20032;-81
2022/12/07 09:18:01;;;;;;;21.30;8.98;;;;;;;;;;5100829;27;20024;-81
2022/12/07 09:20:27;;;;;;;27.50;9.63;;;;;;;;;;5100563;27;20036;-81
2022/12/07 09:22:53;;;;;;;22.33;9.80;;;;;;;;;;5100528;27;20541;-81
2022/12/07 09:25:19;;;;;;;25.35;11.23;;;;;;;;;;5117379;27;20050;-81
2022/12/07 09:27:45;;;;;;;33.15;12.13;;;;;;;;;;5100774;27;20031;-81
2022/12/07 09:30:11;;;;;;;26.13;11.10;;;;;;;;;;5104762;27;20022;-81
2022/12/07 09:32:37;;;;;;;26.58;9.90;;;;;;;;;;5137385;27;20079;-80
2022/12/07 09:35:03;;;;;;;27.98;9.90;;;;;;;;;;5125988;27;20567;-79
2022/12/07 09:37:34;;;;;;;24.85;7.30;;;;;;;;;;5116508;27;20092;-80
2022/12/07 09:40:00;;;;;;;13.82;5.82;;;;;;;;;;5105608;27;20109;-80
2022/12/07 09:42:29;;;;;;;21.42;6.13;;;;;;;;;;5120506;27;20113;-80
2022/12/07 09:44:56;;;;;;;15.63;5.63;;;;;;;;;;5142313;27;20057;-81
2022/12/07 09:47:22;;;;;;;17.85;6.13;;;;;;;;;;5137767;27;20441;-81
2022/12/07 09:49:48;;;;;;;13.02;4.40;;;;;;;;;;5137165;27;20050;-80
2022/12/07 09:52:19;;;;;;;17.23;4.32;;;;;;;;;;5137324;27;20022;-80
2022/12/07 09:54:47;;;;;;;15.55;4.55;;;;;;;;;;5137492;27;20078;-80
2022/12/07 09:57:13;;;;;;;11.32;3.80;;;;;;;;;;5137288;27;20478;-80
2022/12/07 09:59:43;;;;;;;9.30;3.72;;;;;;;;;;5155794;27;20034;-80
2022/12/07 10:02:28;;;;;;;10.48;3.10;;;;;;;;;;5137171;27;20212;-80
2022/12/07 10:04:54;;;;;;;9.15;2.80;;;;;;;;;;5137161;27;20019;-80
2022/12/07 10:07:20;;;;;;;13.13;3.03;;;;;;;;;;5137077;27;20141;-80
2022/12/07 10:09:46;;;;;;;13.35;3.25;;;;;;;;;;5134484;27;20383;-80
2022/12/07 10:12:13;;;;;;;10.80;2.80;;;;;;;;;;5099425;27;20023;-80
2022/12/07 10:14:40;;;;;;;7.57;2.33;;;;;;;;;;5116344;27;20023;-80
2022/12/07 10:17:25;;;;;;;12.35;2.70;;;;;;;;;;5116225;27;20039;-81
2022/12/07 10:19:51;;;;;;;7.60;2.25;;;;;;;;;;5134810;27;20088;-80
2022/12/07 10:22:17;;;;;;;13.45;2.65;;;;;;;;;;5099526;27;20178;-80
2022/12/07 10:24:46;;;;;;;10.48;2.30;;;;;;;;;;5134540;27;20052;-80
2022/12/07 10:27:42;;;;;;;10.73;2.50;;;;;;;;;;5115174;28;20358;-80
2022/12/07 10:30:09;;;;;;;12.73;2.22;;;;;;;;;;5099815;27;20053;-80
2022/12/07 10:32:36;;;;;;;12.75;2.42;;;;;;;;;;5136381;27;20020;-80
2022/12/07 10:35:21;;;;;;;8.88;2.25;;;;;;;;;;5136451;27;20072;-81
2022/12/07 10:37:47;;;;;;;10.88;3.85;;;;;;;;;;5135948;27;20023;-79
2022/12/07 10:40:28;;;;;;;10.60;2.63;;;;;;;;;;5135616;27;20044;-81
2022/12/07 10:43:01;;;;;;;12.07;3.22;;;;;;;;;;5135823;27;20054;-81
2022/12/07 10:45:28;;;;;;;9.25;2.28;;;;;;;;;;5135295;27;20027;-81
2022/12/07 10:48:00;;;;;;;11.95;3.60;;;;;;;;;;5154443;27;20034;-82
2022/12/07 10:50:35;;;;;;;11.98;3.08;;;;;;;;;;5135723;27;20560;-81
2022/12/07 10:53:21;;;;;;;10.88;2.60;;;;;;;;;;5130922;27;20026;-83
2022/12/07 10:55:47;;;;;;;8.82;2.25;;;;;;;;;;5125251;27;20026;-83
2022/12/07 10:58:19;;;;;;;10.85;2.67;;;;;;;;;;5152409;27;20460;-83
2022/12/07 11:00:45;;;;;;;12.35;4.30;;;;;;;;;;5134544;27;20068;-83
2022/12/07 11:03:23;;;;;;;15.73;2.63;;;;;;;;;;5154348;27;20022;-83
2022/12/07 11:05:54;;;;;;;8.27;1.92;;;;;;;;;;5147238;27;20425;-84
2022/12/07 11:08:38;;;;;;;9.90;2.10;;;;;;;;;;5154375;27;20027;-83
2022/12/07 11:11:17;;;;;;;9.90;2.05;;;;;;;;;;5135823;27;20467;-83
2022/12/07 11:13:43;;;;;;;9.80;2.20;;;;;;;;;;5136090;27;20042;-83
2022/12/07 11:16:12;;;;;;;9.88;1.95;;;;;;;;;;5135582;27;20057;-84
2022/12/07 11:18:50;;;;;;;14.70;2.38;;;;;;;;;;5135729;27;20058;-85
2022/12/07 11:21:21;;;;;;;13.10;1.83;;;;;;;;;;5154465;27;20102;-84
2022/12/07 11:24:02;;;;;;;6.53;2.00;;;;;;;;;;5154466;27;20050;-84
2022/12/07 11:26:47;;;;;;;7.88;2.40;;;;;;;;;;5135847;27;20030;-84
2022/12/07 11:29:13;;;;;;;9.00;2.20;;;;;;;;;;5133579;27;20027;-85
2022/12/07 11:31:55;;;;;;;11.27;1.95;;;;;;;;;;5129817;27;20553;-84
2022/12/07 11:34:28;;;;;;;12.00;2.00;;;;;;;;;;5152960;27;20022;-85
2022/12/07 11:36:55;;;;;;;12.45;3.05;;;;;;;;;;5135314;27;20809;-85
2022/12/07 11:39:27;;;;;;;8.65;1.83;;;;;;;;;;5134852;27;20067;-85
2022/12/07 11:42:02;;;;;;;7.55;1.50;;;;;;;;;;5135047;27;20428;-85
2022/12/07 11:44:33;;;;;;;6.80;1.35;;;;;;;;;;5135299;27;20035;-84
2022/12/07 11:47:02;;;;;;;8.98;1.42;;;;;;;;;;5135032;27;20027;-85
2022/12/07 11:49:41;;;;;;;8.63;1.65;;;;;;;;;;5114279;27;20047;-85
2022/12/07 11:52:12;;;;;;;6.03;1.30;;;;;;;;;;5107375;28;20386;-85
2022/12/07 11:54:41;;;;;;;11.13;1.70;;;;;;;;;;5130138;27;20015;-85
2022/12/07 11:57:13;;;;;;;7.05;2.67;;;;;;;;;;5133016;28;20080;-84
2022/12/07 11:59:41;;;;;;;10.83;1.60;;;;;;;;;;5133116;27;20046;-85
2022/12/07 12:02:20;;;;;;;8.55;1.80;;;;;;;;;;5132953;28;20321;-85
2022/12/07 12:05:06;;;;;;;9.57;1.75;;;;;;;;;;5114555;28;20020;-85
2022/12/07 12:07:32;;;;;;;14.10;1.52;;;;;;;;;;5114706;28;20059;-85
2022/12/07 12:10:15;;;;;;;4.75;1.77;;;;;;;;;;5091908;28;20058;-83
2022/12/07 12:12:47;;;;;;;8.65;1.55;;;;;;;;;;5112662;28;20020;-82
2022/12/07 12:15:32;;;;;;;14.40;2.70;;;;;;;;;;5094328;28;20111;-82
2022/12/07 12:18:07;;;;;;;10.57;1.92;;;;;;;;;;5094274;28;20034;-82
2022/12/07 12:20:38;;;;;;;11.30;1.60;;;;;;;;;;5117525;28;20027;-82
2022/12/07 12:23:04;;;;;;;6.18;1.70;;;;;;;;;;5114642;28;20027;-81
2022/12/07 12:25:32;;;;;;;16.92;1.90;;;;;;;;;;5114727;28;20031;-81
2022/12/07 12:28:01;;;;;;;13.15;2.22;;;;;;;;;;5114500;28;20030;-81
2022/12/07 12:30:30;;;;;;;6.95;1.42;;;;;;;;;;5096682;28;20023;-80
2022/12/07 12:33:03;;;;;;;5.78;1.30;;;;;;;;;;5093871;28;20385;-80
2022/12/07 12:35:34;;;;;;;7.68;1.80;;;;;;;;;;5112461;28;20016;-80
2022/12/07 12:38:19;;;;;;;5.35;1.13;;;;;;;;;;5094013;28;20160;-81
2022/12/07 12:40:45;;;;;;;8.85;1.20;;;;;;;;;;5093996;28;20024;-80
2022/12/07 12:43:30;;;;;;;8.85;1.50;;;;;;;;;;5111817;28;20460;-80
2022/12/07 12:46:14;;;;;;;7.28;1.33;;;;;;;;;;5132637;28;20027;-80
2022/12/07 12:48:40;;;;;;;11.20;1.80;;;;;;;;;;5114005;28;20057;-80
2022/12/07 12:51:29;;;;;;;4.95;1.63;;;;;;;;;;5115216;27;20056;-80
2022/12/07 12:54:04;;;;;;;9.05;1.70;;;;;;;;;;5103103;28;20027;-80
2022/12/07 12:56:43;;;;;;;5.47;1.42;;;;;;;;;;5115765;28;20054;-80
2022/12/07 12:59:39;;;;;;;6.95;1.50;;;;;;;;;;5115687;28;20353;-80
2022/12/07 13:02:17;;;;;;;14.90;2.00;;;;;;;;;;5011247;27;20140;-80
2022/12/07 13:04:51;;;;;;;9.77;1.27;;;;;;;;;;5136080;27;20106;-80
2022/12/07 13:07:35;;;;;;;6.60;1.08;;;;;;;;;;5117544;27;20083;-80
2022/12/07 13:10:02;;;;;;;6.72;1.15;;;;;;;;;;5117647;27;20035;-80
2022/12/07 13:12:28;;;;;;;6.05;1.00;;;;;;;;;;5117441;27;20050;-80
2022/12/07 13:14:56;;;;;;;10.57;1.70;;;;;;;;;;5098588;28;20032;-80
2022/12/07 13:17:31;;;;;;;9.00;1.88;;;;;;;;;;5096786;28;20034;-80
2022/12/07 13:20:01;;;;;;;5.70;1.90;;;;;;;;;;5115518;28;20072;-80
2022/12/07 13:22:37;;;;;;;8.38;1.30;;;;;;;;;;5114855;28;20015;-81
2022/12/07 13:25:07;;;;;;;12.05;1.50;;;;;;;;;;5116148;27;20023;-80
2022/12/07 13:27:35;;;;;;;8.63;1.38;;;;;;;;;;5096783;28;20094;-80
2022/12/07 13:30:01;;;;;;;10.20;1.27;;;;;;;;;;5114444;28;20035;-80
2022/12/07 13:32:29;;;;;;;8.85;1.10;;;;;;;;;;5079715;28;20024;-82
2022/12/07 13:34:55;;;;;;;6.85;1.13;;;;;;;;;;5132113;27;20023;-81
2022/12/07 13:37:24;;;;;;;7.35;1.40;;;;;;;;;;5117098;27;20157;-81
2022/12/07 13:39:58;;;;;;;8.27;2.20;;;;;;;;;;5116833;27;20046;-81
2022/12/07 13:42:24;;;;;;;10.38;1.40;;;;;;;;;;5135390;27;20016;-80
2022/12/07 13:44:50;;;;;;;8.07;1.83;;;;;;;;;;5112677;27;20028;-81
2022/12/07 13:47:19;;;;;;;3.83;1.20;;;;;;;;;;5116974;27;20023;-81
2022/12/07 13:49:51;;;;;;;5.18;1.80;;;;;;;;;;5134885;27;20042;-81
2022/12/07 13:52:19;;;;;;;4.38;1.33;;;;;;;;;;5134381;27;20024;-81
2022/12/07 13:54:51;;;;;;;4.70;0.82;;;;;;;;;;5116019;27;20068;-80
2022/12/07 13:57:18;;;;;;;3.00;0.80;;;;;;;;;;5133831;27;20015;-80
2022/12/07 13:59:44;;;;;;;3.95;0.80;;;;;;;;;;5116499;27;20035;-81
2022/12/07 14:02:21;;;;;;;5.80;1.27;;;;;;;;;;5134568;27;20024;-81
2022/12/07 14:04:47;;;;;;;4.90;0.95;;;;;;;;;;5116510;27;20046;-80
2022/12/07 14:07:27;;;;;;;4.82;0.80;;;;;;;;;;5099899;28;20027;-81
2022/12/07 14:09:58;;;;;;;5.32;0.52;;;;;;;;;;5124924;27;20132;-81
2022/12/07 14:12:25;;;;;;;6.35;0.90;;;;;;;;;;5116219;27;20045;-82
2022/12/07 14:14:52;;;;;;;6.20;0.57;;;;;;;;;;5134244;27;20437;-82
2022/12/07 14:17:19;;;;;;;4.22;0.90;;;;;;;;;;5092153;27;20469;-82
2022/12/07 14:19:50;;;;;;;7.22;1.05;;;;;;;;;;5134476;27;20125;-81
2022/12/07 14:22:22;;;;;;;6.00;1.52;;;;;;;;;;5114762;27;20023;-82
2022/12/07 14:24:48;;;;;;;4.78;1.92;;;;;;;;;;5112580;27;20027;-82
2022/12/07 14:27:19;;;;;;;10.98;2.55;;;;;;;;;;5092745;28;20057;-82
2022/12/07 14:29:46;;;;;;;5.68;1.60;;;;;;;;;;5133263;27;20026;-82
2022/12/07 14:32:27;;;;;;;6.18;1.92;;;;;;;;;;5132626;27;20019;-82
2022/12/07 14:35:14;;;;;;;3.80;1.80;;;;;;;;;;5115816;27;20019;-82
2022/12/07 14:37:41;;;;;;;6.53;2.30;;;;;;;;;;5132430;27;20015;-82
2022/12/07 14:40:08;;;;;;;8.93;2.40;;;;;;;;;;5134065;27;20030;-81
2022/12/07 14:42:35;;;;;;;8.40;2.38;;;;;;;;;;5115655;27;20156;-81
2022/12/07 14:45:01;;;;;;;5.03;1.63;;;;;;;;;;5115759;27;20075;-82
2022/12/07 14:47:27;;;;;;;7.95;1.45;;;;;;;;;;5114585;27;20321;-81